Time;durP1;ratioP1;P1;durP2;ratioP2;P2;SDS_P1;SDS_P2;PMS_P1;PMS_P2;Temp;Humidity;BMP_temperature;BMP_pressure;BME280_temperature;BME280_humidity;BME280_pressure;Samples;Min_cycle;Max_cycle;Signal;HPM_P1;HPM_P2
2022/10/03 00:01:29;;;;;;;1.00;0.45;;;;;;;;;;5057813;28;20059;-70
2022/10/03 00:04:02;;;;;;;0.68;0.28;;;;;;;;;;5064213;28;20045;-70
2022/10/03 00:06:39;;;;;;;0.20;0.20;;;;;;;;;;5062353;28;20058;-70
2022/10/03 00:09:19;;;;;;;0.70;0.50;;;;;;;;;;5065838;28;20071;-70
2022/10/03 00:11:55;;;;;;;0.30;0.30;;;;;;;;;;5058087;28;20053;-71
2022/10/03 00:14:29;;;;;;;0.93;0.55;;;;;;;;;;5064916;28;20048;-71
2022/10/03 00:17:02;;;;;;;1.30;0.55;;;;;;;;;;5066329;28;20048;-70
2022/10/03 00:19:38;;;;;;;0.60;0.40;;;;;;;;;;5069044;28;20052;-71
2022/10/03 00:22:17;;;;;;;0.50;0.50;;;;;;;;;;5055675;28;20044;-71
2022/10/03 00:24:50;;;;;;;1.45;0.57;;;;;;;;;;5069251;28;20102;-70
2022/10/03 00:27:25;;;;;;;0.90;0.50;;;;;;;;;;5066401;28;20060;-71
2022/10/03 00:30:07;;;;;;;0.25;0.20;;;;;;;;;;5063514;28;20045;-70
2022/10/03 00:32:45;;;;;;;1.15;0.50;;;;;;;;;;5067033;28;20047;-71
2022/10/03 00:35:20;;;;;;;1.55;0.47;;;;;;;;;;5058210;28;20050;-71
2022/10/03 00:37:58;;;;;;;0.75;0.38;;;;;;;;;;5067163;28;20048;-70
2022/10/03 00:40:41;;;;;;;0.85;0.22;;;;;;;;;;5062803;28;20413;-72
2022/10/03 00:43:19;;;;;;;0.63;0.28;;;;;;;;;;5062696;28;20045;-71
2022/10/03 00:45:58;;;;;;;0.93;0.30;;;;;;;;;;5060516;28;20044;-70
2022/10/03 00:48:36;;;;;;;0.80;0.63;;;;;;;;;;5059493;28;20045;-70
2022/10/03 00:51:13;;;;;;;0.25;0.25;;;;;;;;;;5062600;28;20053;-70
2022/10/03 00:53:48;;;;;;;1.52;0.85;;;;;;;;;;5060909;28;20041;-70
2022/10/03 00:56:31;;;;;;;0.52;0.30;;;;;;;;;;5059000;28;20076;-71
2022/10/03 00:59:05;;;;;;;1.83;0.75;;;;;;;;;;5064694;28;20044;-70
2022/10/03 01:01:39;;;;;;;0.60;0.60;;;;;;;;;;5065969;28;20040;-70
2022/10/03 01:04:16;;;;;;;0.70;0.52;;;;;;;;;;5065416;28;20056;-70
2022/10/03 01:06:47;;;;;;;0.88;0.57;;;;;;;;;;5061605;28;20056;-71
2022/10/03 01:09:23;;;;;;;0.98;0.47;;;;;;;;;;5065351;28;20048;-70
2022/10/03 01:11:59;;;;;;;0.95;0.35;;;;;;;;;;5064005;28;20500;-70
2022/10/03 01:14:41;;;;;;;1.05;0.40;;;;;;;;;;5060895;28;20040;-70
2022/10/03 01:17:15;;;;;;;3.00;0.88;;;;;;;;;;5063656;28;20053;-70
2022/10/03 01:20:00;;;;;;;0.52;0.30;;;;;;;;;;5059416;28;20037;-70
2022/10/03 01:22:42;;;;;;;1.42;0.65;;;;;;;;;;5063195;28;20044;-70
2022/10/03 01:25:12;;;;;;;1.38;0.65;;;;;;;;;;5062838;28;20051;-70
2022/10/03 01:30:39;;;;;;;0.95;0.60;;;;;;;;;;5057509;28;20055;-70
2022/10/03 01:33:10;;;;;;;1.63;1.00;;;;;;;;;;5066482;28;20059;-70
2022/10/03 01:35:44;;;;;;;0.28;0.28;;;;;;;;;;5066090;28;20052;-70
2022/10/03 01:38:19;;;;;;;0.65;0.40;;;;;;;;;;5054825;28;20079;-70
2022/10/03 01:40:51;;;;;;;0.90;0.40;;;;;;;;;;5063281;28;20049;-70
2022/10/03 01:43:21;;;;;;;1.65;0.75;;;;;;;;;;5061907;28;20501;-70
2022/10/03 01:45:58;;;;;;;0.55;0.50;;;;;;;;;;5062135;28;20048;-71
2022/10/03 01:48:31;;;;;;;1.77;0.95;;;;;;;;;;5060016;28;20385;-70
2022/10/03 01:51:02;;;;;;;2.05;0.75;;;;;;;;;;5062604;28;20052;-70
2022/10/03 01:53:37;;;;;;;1.40;0.63;;;;;;;;;;5065943;28;20049;-70
2022/10/03 01:56:09;;;;;;;1.33;0.68;;;;;;;;;;5055551;28;20492;-70
2022/10/03 01:58:42;;;;;;;1.30;0.75;;;;;;;;;;5058324;28;20044;-70
2022/10/03 02:01:14;;;;;;;15.02;1.38;;;;;;;;;;5067417;28;20049;-71
2022/10/03 02:03:45;;;;;;;1.77;0.68;;;;;;;;;;5067040;28;20382;-70
2022/10/03 02:06:20;;;;;;;0.52;0.50;;;;;;;;;;5066778;28;20555;-70
2022/10/03 02:08:53;;;;;;;0.95;0.50;;;;;;;;;;5063637;28;20294;-70
2022/10/03 02:11:30;;;;;;;3.00;1.33;;;;;;;;;;5066389;28;20048;-70
2022/10/03 02:13:59;;;;;;;1.52;0.68;;;;;;;;;;5064673;28;20041;-70
2022/10/03 02:16:33;;;;;;;1.38;0.77;;;;;;;;;;5063819;28;20117;-70
2022/10/03 02:19:05;;;;;;;1.63;0.80;;;;;;;;;;5059906;28;20067;-70
2022/10/03 02:21:34;;;;;;;0.40;0.40;;;;;;;;;;5064984;28;20405;-70
2022/10/03 02:24:08;;;;;;;3.60;1.25;;;;;;;;;;5059687;28;20055;-70
2022/10/03 02:26:53;;;;;;;1.63;1.05;;;;;;;;;;5043823;28;20373;-70
2022/10/03 02:29:40;;;;;;;1.08;0.73;;;;;;;;;;5056558;28;20061;-71
2022/10/03 02:32:27;;;;;;;1.02;0.75;;;;;;;;;;5033852;28;20053;-70
2022/10/03 02:35:16;;;;;;;0.98;0.50;;;;;;;;;;5036429;28;20049;-70
2022/10/03 02:38:01;;;;;;;1.58;0.85;;;;;;;;;;5065597;28;20045;-70
2022/10/03 02:40:48;;;;;;;2.45;0.60;;;;;;;;;;5068880;28;20827;-70
2022/10/03 02:43:45;;;;;;;1.13;0.90;;;;;;;;;;5068143;28;20382;-70
2022/10/03 02:46:28;;;;;;;1.02;0.45;;;;;;;;;;5066050;28;20455;-70
2022/10/03 02:49:14;;;;;;;1.17;0.68;;;;;;;;;;5052048;28;20051;-70
2022/10/03 02:52:01;;;;;;;1.42;0.70;;;;;;;;;;5069101;28;20053;-70
2022/10/03 02:54:44;;;;;;;8.15;2.10;;;;;;;;;;5067375;28;20048;-70
2022/10/03 02:57:25;;;;;;;1.90;0.82;;;;;;;;;;5063821;28;20048;-70
2022/10/03 03:00:12;;;;;;;0.82;0.47;;;;;;;;;;5065963;28;20044;-70
2022/10/03 03:03:00;;;;;;;1.83;0.70;;;;;;;;;;5064435;28;20563;-70
2022/10/03 03:05:55;;;;;;;1.08;0.63;;;;;;;;;;5054630;28;20060;-70
2022/10/03 03:08:39;;;;;;;2.07;0.90;;;;;;;;;;5059553;28;20402;-70
2022/10/03 03:11:32;;;;;;;1.35;0.88;;;;;;;;;;5063002;28;20048;-70
2022/10/03 03:14:21;;;;;;;5.15;1.05;;;;;;;;;;5019822;28;20050;-70
2022/10/03 03:16:56;;;;;;;5.13;1.02;;;;;;;;;;5075893;28;20052;-70
2022/10/03 03:19:47;;;;;;;2.47;0.60;;;;;;;;;;5067532;28;20056;-70
2022/10/03 03:22:24;;;;;;;3.15;1.10;;;;;;;;;;5064994;28;20048;-71
2022/10/03 03:24:59;;;;;;;2.08;1.00;;;;;;;;;;5064578;28;20048;-70
2022/10/03 03:27:48;;;;;;;0.98;0.93;;;;;;;;;;5063691;28;20053;-70
2022/10/03 03:30:19;;;;;;;1.23;0.70;;;;;;;;;;5063855;28;20503;-70
2022/10/03 03:32:54;;;;;;;1.30;0.88;;;;;;;;;;5055133;28;20059;-72
2022/10/03 03:35:27;;;;;;;0.75;0.50;;;;;;;;;;5056980;28;20041;-70
2022/10/03 03:38:02;;;;;;;2.38;1.08;;;;;;;;;;5062677;28;20049;-70
2022/10/03 03:40:37;;;;;;;2.05;0.82;;;;;;;;;;5058422;28;20520;-70
2022/10/03 03:43:23;;;;;;;0.65;0.52;;;;;;;;;;5060689;28;20044;-71
2022/10/03 03:46:01;;;;;;;2.10;1.13;;;;;;;;;;5064448;28;20055;-70
2022/10/03 03:48:37;;;;;;;2.65;1.40;;;;;;;;;;5061626;28;20049;-70
2022/10/03 03:51:11;;;;;;;0.90;0.75;;;;;;;;;;5063681;28;20048;-70
2022/10/03 03:53:58;;;;;;;2.58;0.98;;;;;;;;;;5066191;28;20344;-70
2022/10/03 03:56:47;;;;;;;2.10;0.68;;;;;;;;;;5057770;28;20115;-70
2022/10/03 03:59:25;;;;;;;1.85;1.17;;;;;;;;;;5056205;28;20493;-70
2022/10/03 04:02:05;;;;;;;1.65;1.00;;;;;;;;;;5058510;28;20044;-70
2022/10/03 04:04:40;;;;;;;1.23;0.88;;;;;;;;;;5069738;28;20611;-71
2022/10/03 04:07:16;;;;;;;5.68;1.25;;;;;;;;;;5061133;28;20060;-71
2022/10/03 04:09:59;;;;;;;3.15;1.33;;;;;;;;;;5061868;28;20122;-70
2022/10/03 04:12:32;;;;;;;1.27;1.10;;;;;;;;;;5060126;28;20420;-70
2022/10/03 04:15:05;;;;;;;2.10;1.20;;;;;;;;;;5060041;28;20060;-70
2022/10/03 04:20:47;;;;;;;3.03;0.93;;;;;;;;;;5063365;28;20048;-70
2022/10/03 04:23:24;;;;;;;0.88;0.60;;;;;;;;;;5061749;28;20053;-70
2022/10/03 04:26:06;;;;;;;1.20;0.45;;;;;;;;;;5055438;28;20056;-71
2022/10/03 04:28:49;;;;;;;2.25;0.82;;;;;;;;;;5054914;28;20443;-70
2022/10/03 04:31:27;;;;;;;2.45;1.25;;;;;;;;;;5052627;28;20056;-70
2022/10/03 04:34:05;;;;;;;1.20;0.95;;;;;;;;;;5053921;28;20076;-70
2022/10/03 04:36:54;;;;;;;4.30;1.33;;;;;;;;;;5063751;28;20082;-71
2022/10/03 04:39:26;;;;;;;2.63;1.20;;;;;;;;;;5056747;28;20070;-70
2022/10/03 04:41:57;;;;;;;1.98;1.02;;;;;;;;;;5052829;28;20071;-70
2022/10/03 04:44:34;;;;;;;1.30;1.00;;;;;;;;;;5060998;28;20052;-70
2022/10/03 04:47:07;;;;;;;2.53;0.73;;;;;;;;;;5065545;28;20045;-70
2022/10/03 04:49:39;;;;;;;1.90;0.95;;;;;;;;;;5055817;28;20049;-70
2022/10/03 04:52:15;;;;;;;0.95;0.70;;;;;;;;;;5057880;28;20057;-70
2022/10/03 04:54:47;;;;;;;2.80;1.73;;;;;;;;;;5063368;28;20063;-70
2022/10/03 04:57:19;;;;;;;1.70;0.88;;;;;;;;;;5055703;28;20053;-70
2022/10/03 04:59:52;;;;;;;1.42;0.73;;;;;;;;;;5057056;28;20059;-70
2022/10/03 05:02:33;;;;;;;0.70;0.43;;;;;;;;;;5061427;28;20048;-70
2022/10/03 05:05:12;;;;;;;3.75;1.52;;;;;;;;;;5062299;28;20047;-70
2022/10/03 05:07:46;;;;;;;5.47;1.17;;;;;;;;;;5060415;28;20091;-70
2022/10/03 05:10:23;;;;;;;1.50;0.80;;;;;;;;;;5054600;28;20420;-70
2022/10/03 05:12:55;;;;;;;2.67;0.85;;;;;;;;;;5055522;28;20048;-70
2022/10/03 05:15:26;;;;;;;0.65;0.60;;;;;;;;;;5049584;28;20409;-70
2022/10/03 05:18:01;;;;;;;1.35;0.85;;;;;;;;;;5054509;28;20052;-70
2022/10/03 05:20:45;;;;;;;3.10;1.23;;;;;;;;;;5057063;28;20048;-71
2022/10/03 05:23:18;;;;;;;1.35;0.90;;;;;;;;;;5051335;28;20045;-70
2022/10/03 05:25:52;;;;;;;0.80;0.50;;;;;;;;;;5059339;28;20037;-70
2022/10/03 05:28:25;;;;;;;0.85;0.55;;;;;;;;;;5056925;28;20477;-70
2022/10/03 05:30:57;;;;;;;1.35;1.20;;;;;;;;;;5061150;28;20151;-70
2022/10/03 05:33:30;;;;;;;2.38;0.65;;;;;;;;;;5057348;28;20049;-70
2022/10/03 05:36:16;;;;;;;1.10;0.95;;;;;;;;;;5062373;28;20516;-70
2022/10/03 05:39:08;;;;;;;1.38;0.70;;;;;;;;;;5062287;28;20055;-70
2022/10/03 05:41:37;;;;;;;1.40;0.88;;;;;;;;;;5043163;28;20041;-73
2022/10/03 05:44:10;;;;;;;1.13;0.65;;;;;;;;;;5063569;28;20517;-71
2022/10/03 05:46:48;;;;;;;2.08;0.77;;;;;;;;;;5061458;28;20111;-70
2022/10/03 05:49:24;;;;;;;1.63;0.75;;;;;;;;;;5061012;28;20409;-71
2022/10/03 05:52:01;;;;;;;2.22;0.98;;;;;;;;;;5056861;28;20049;-70
2022/10/03 05:54:44;;;;;;;2.70;1.15;;;;;;;;;;5060854;28;20049;-70
2022/10/03 05:57:31;;;;;;;2.60;1.10;;;;;;;;;;5060183;28;20056;-70
2022/10/03 06:00:06;;;;;;;1.23;0.75;;;;;;;;;;5049433;28;20447;-70
2022/10/03 06:02:44;;;;;;;1.00;0.80;;;;;;;;;;5056836;28;20048;-70
2022/10/03 06:05:15;;;;;;;3.13;0.80;;;;;;;;;;5064643;28;20051;-70
2022/10/03 06:07:58;;;;;;;1.45;0.40;;;;;;;;;;5062221;28;20059;-70
2022/10/03 06:10:44;;;;;;;7.43;0.88;;;;;;;;;;5060242;28;20049;-71
2022/10/03 06:13:15;;;;;;;1.63;0.45;;;;;;;;;;5061175;28;20774;-70
2022/10/03 06:15:53;;;;;;;2.35;0.93;;;;;;;;;;5067732;28;20052;-70
2022/10/03 06:18:46;;;;;;;0.85;0.57;;;;;;;;;;5060635;28;20095;-70
2022/10/03 06:21:23;;;;;;;2.40;1.15;;;;;;;;;;5052398;28;20056;-70
2022/10/03 06:24:12;;;;;;;1.42;0.98;;;;;;;;;;5057621;28;20056;-70
2022/10/03 06:26:51;;;;;;;1.85;1.23;;;;;;;;;;5052607;28;20049;-70
2022/10/03 06:29:37;;;;;;;1.30;1.10;;;;;;;;;;5060380;28;20053;-71
2022/10/03 06:32:15;;;;;;;2.45;1.15;;;;;;;;;;5058141;28;20048;-70
2022/10/03 06:34:54;;;;;;;1.60;0.63;;;;;;;;;;5059113;28;20051;-70
2022/10/03 06:37:35;;;;;;;0.88;0.57;;;;;;;;;;5062246;28;20060;-70
2022/10/03 06:40:22;;;;;;;0.95;0.70;;;;;;;;;;5056215;28;20052;-71
2022/10/03 06:43:00;;;;;;;0.47;0.40;;;;;;;;;;5053745;28;20056;-73
2022/10/03 06:45:50;;;;;;;1.88;0.98;;;;;;;;;;5058454;28;20123;-71
2022/10/03 06:48:33;;;;;;;2.90;1.67;;;;;;;;;;5052224;28;20168;-70
2022/10/03 06:51:13;;;;;;;2.35;1.15;;;;;;;;;;5043547;28;20056;-70
2022/10/03 06:53:56;;;;;;;0.88;0.68;;;;;;;;;;5054368;28;20060;-70
2022/10/03 06:56:40;;;;;;;2.25;1.00;;;;;;;;;;5051475;28;20127;-70
2022/10/03 06:59:49;;;;;;;2.35;1.08;;;;;;;;;;5054001;28;20563;-71
2022/10/03 07:02:35;;;;;;;2.60;1.25;;;;;;;;;;4995771;28;20058;-70
2022/10/03 07:05:14;;;;;;;1.65;0.95;;;;;;;;;;4996345;28;20262;-70
2022/10/03 07:08:03;;;;;;;2.88;0.95;;;;;;;;;;5035007;28;20502;-70
2022/10/03 07:10:38;;;;;;;1.02;0.60;;;;;;;;;;5027510;28;20056;-72
2022/10/03 07:13:30;;;;;;;3.35;1.05;;;;;;;;;;5055896;28;20052;-70
2022/10/03 07:16:18;;;;;;;1.27;0.80;;;;;;;;;;5037184;28;20406;-71
2022/10/03 07:19:13;;;;;;;0.80;0.80;;;;;;;;;;5053693;28;20052;-71
2022/10/03 07:22:03;;;;;;;1.85;1.30;;;;;;;;;;5056866;28;20497;-70
2022/10/03 07:24:52;;;;;;;2.80;1.10;;;;;;;;;;5051798;28;20044;-72
2022/10/03 07:27:26;;;;;;;3.85;1.42;;;;;;;;;;5053004;28;20049;-70
2022/10/03 07:30:04;;;;;;;2.08;1.27;;;;;;;;;;5054713;28;20516;-71
2022/10/03 07:32:51;;;;;;;4.53;1.95;;;;;;;;;;5055174;28;20056;-70
2022/10/03 07:41:23;;;;;;;1.88;1.25;;;;;;;;;;5058369;28;20056;-71
2022/10/03 07:44:12;;;;;;;2.35;1.50;;;;;;;;;;5059526;28;20055;-70
2022/10/03 07:46:59;;;;;;;2.45;1.50;;;;;;;;;;5050423;28;20051;-70
2022/10/03 07:49:39;;;;;;;1.05;0.68;;;;;;;;;;5054592;28;20061;-70
2022/10/03 07:52:30;;;;;;;3.75;1.15;;;;;;;;;;5050470;28;20040;-71
2022/10/03 07:55:15;;;;;;;4.50;2.35;;;;;;;;;;5055128;28;20041;-71
2022/10/03 07:57:44;;;;;;;;;;;;;;;;;;5055338;28;20053;-70
2022/10/03 08:00:18;;;;;;;1.83;0.93;;;;;;;;;;5057369;28;19947;-70
2022/10/03 08:03:01;;;;;;;4.80;1.63;;;;;;;;;;5053120;28;20603;-70
2022/10/03 08:05:40;;;;;;;2.63;1.40;;;;;;;;;;5052323;28;20052;-70
2022/10/03 08:08:20;;;;;;;2.38;1.17;;;;;;;;;;5053615;28;20052;-70
2022/10/03 08:11:03;;;;;;;2.38;0.80;;;;;;;;;;5054352;28;20079;-71
2022/10/03 08:13:36;;;;;;;1.52;1.40;;;;;;;;;;5055471;28;20523;-72
2022/10/03 08:16:10;;;;;;;3.65;1.25;;;;;;;;;;5054406;28;20511;-70
2022/10/03 08:18:53;;;;;;;1.70;1.20;;;;;;;;;;5054639;28;20045;-70
2022/10/03 08:21:26;;;;;;;3.55;1.15;;;;;;;;;;5053087;28;20049;-72
2022/10/03 08:24:16;;;;;;;2.42;1.48;;;;;;;;;;5052356;28;20060;-70
2022/10/03 08:26:56;;;;;;;5.70;2.13;;;;;;;;;;5076380;28;20083;-73
2022/10/03 08:29:32;;;;;;;1.48;0.82;;;;;;;;;;5051202;28;20548;-71
2022/10/03 08:32:10;;;;;;;1.95;1.35;;;;;;;;;;5054543;28;20053;-70
2022/10/03 08:34:54;;;;;;;1.15;1.05;;;;;;;;;;5052030;28;20684;-70
2022/10/03 08:37:58;;;;;;;1.83;1.52;;;;;;;;;;5026020;28;20048;-70
2022/10/03 08:40:41;;;;;;;2.08;1.27;;;;;;;;;;5054106;28;20048;-70
2022/10/03 08:43:25;;;;;;;4.90;2.70;;;;;;;;;;5049854;28;20057;-70
2022/10/03 08:45:59;;;;;;;1.88;0.88;;;;;;;;;;5057775;28;20060;-70
2022/10/03 08:48:41;;;;;;;3.22;1.40;;;;;;;;;;5057852;28;20054;-71
2022/10/03 08:51:27;;;;;;;2.17;1.05;;;;;;;;;;5055742;28;20071;-70
2022/10/03 08:54:13;;;;;;;2.95;1.42;;;;;;;;;;5016564;28;20060;-69
2022/10/03 08:56:49;;;;;;;2.40;1.23;;;;;;;;;;5058463;28;20060;-70
2022/10/03 08:59:36;;;;;;;4.93;1.17;;;;;;;;;;5055456;28;20056;-70
2022/10/03 09:02:19;;;;;;;1.73;1.38;;;;;;;;;;5047100;28;20562;-70
2022/10/03 09:05:11;;;;;;;3.15;1.45;;;;;;;;;;5055856;28;20137;-70
2022/10/03 09:07:50;;;;;;;2.90;1.40;;;;;;;;;;5053923;28;20086;-71
2022/10/03 09:10:45;;;;;;;6.55;1.10;;;;;;;;;;5049567;28;20052;-70
2022/10/03 09:13:25;;;;;;;3.28;1.63;;;;;;;;;;5058235;28;20578;-70
2022/10/03 09:16:10;;;;;;;2.47;1.67;;;;;;;;;;5053275;28;20328;-70
2022/10/03 09:18:54;;;;;;;0.88;0.88;;;;;;;;;;5047126;28;20056;-71
2022/10/03 09:21:33;;;;;;;14.70;2.17;;;;;;;;;;5054455;28;20048;-71
2022/10/03 09:24:25;;;;;;;3.83;1.50;;;;;;;;;;5053786;28;20114;-70
2022/10/03 09:27:18;;;;;;;4.70;1.77;;;;;;;;;;5051030;28;20103;-72
2022/10/03 09:30:02;;;;;;;1.77;1.30;;;;;;;;;;5052399;28;20053;-70
2022/10/03 09:32:46;;;;;;;9.45;3.17;;;;;;;;;;5049127;28;20055;-72
2022/10/03 09:35:42;;;;;;;3.90;1.40;;;;;;;;;;5052457;28;20088;-72
2022/10/03 09:38:28;;;;;;;2.03;1.40;;;;;;;;;;5051009;28;20040;-69
2022/10/03 09:41:15;;;;;;;1.95;1.08;;;;;;;;;;5052019;28;20044;-74
2022/10/03 09:43:59;;;;;;;1.85;1.35;;;;;;;;;;5052710;28;20053;-72
2022/10/03 09:46:35;;;;;;;1.77;1.10;;;;;;;;;;5054776;28;20146;-70
2022/10/03 09:49:22;;;;;;;3.17;1.33;;;;;;;;;;5051800;28;20060;-71
2022/10/03 09:51:58;;;;;;;5.95;1.42;;;;;;;;;;5052762;28;20060;-70
2022/10/03 09:54:34;;;;;;;2.80;0.80;;;;;;;;;;5048408;28;20060;-72
2022/10/03 09:57:26;;;;;;;1.48;1.05;;;;;;;;;;5050402;28;20412;-70
2022/10/03 10:00:13;;;;;;;0.85;0.68;;;;;;;;;;5048704;28;20069;-70
2022/10/03 10:03:03;;;;;;;1.90;0.80;;;;;;;;;;5048394;28;20155;-70
2022/10/03 10:05:42;;;;;;;4.38;1.13;;;;;;;;;;5052915;28;20043;-72
2022/10/03 10:08:25;;;;;;;4.97;2.00;;;;;;;;;;5051234;28;20041;-69
2022/10/03 10:10:58;;;;;;;2.25;0.95;;;;;;;;;;5037644;28;20048;-69
2022/10/03 10:13:46;;;;;;;3.63;1.83;;;;;;;;;;5048923;28;20056;-70
2022/10/03 10:16:49;;;;;;;2.55;0.85;;;;;;;;;;5069078;28;20055;-69
2022/10/03 10:19:34;;;;;;;4.20;1.63;;;;;;;;;;5053408;28;20296;-70
2022/10/03 10:22:10;;;;;;;2.00;1.40;;;;;;;;;;5051357;28;20045;-68
2022/10/03 10:24:52;;;;;;;2.30;0.95;;;;;;;;;;5048188;28;20052;-70
2022/10/03 10:27:32;;;;;;;1.42;0.75;;;;;;;;;;5055871;28;20055;-68
2022/10/03 10:30:07;;;;;;;1.38;0.95;;;;;;;;;;5050450;28;20091;-69
2022/10/03 10:32:59;;;;;;;1.10;0.77;;;;;;;;;;5053775;28;20082;-69
2022/10/03 10:35:40;;;;;;;1.52;0.93;;;;;;;;;;5047261;28;20041;-69
2022/10/03 10:38:27;;;;;;;1.73;0.80;;;;;;;;;;5046558;28;20354;-68
2022/10/03 10:41:10;;;;;;;1.52;0.68;;;;;;;;;;5056489;28;20049;-69
2022/10/03 10:44:05;;;;;;;0.70;0.60;;;;;;;;;;5018644;28;20099;-69
2022/10/03 10:46:59;;;;;;;1.98;1.00;;;;;;;;;;5047944;28;20044;-69
2022/10/03 10:49:57;;;;;;;0.80;0.80;;;;;;;;;;5050792;28;20041;-69
2022/10/03 10:52:43;;;;;;;4.22;1.00;;;;;;;;;;5050808;28;20052;-70
2022/10/03 10:55:30;;;;;;;4.65;0.80;;;;;;;;;;5053069;28;20485;-69
2022/10/03 10:58:23;;;;;;;1.83;1.00;;;;;;;;;;5060035;28;20044;-70
2022/10/03 11:01:02;;;;;;;0.98;0.85;;;;;;;;;;5046232;28;20053;-69
2022/10/03 11:03:55;;;;;;;0.60;0.60;;;;;;;;;;5055417;28;20110;-69
2022/10/03 11:06:47;;;;;;;2.22;1.00;;;;;;;;;;5056597;28;20060;-69
2022/10/03 11:09:34;;;;;;;2.85;1.05;;;;;;;;;;5051464;28;20412;-69
2022/10/03 11:12:22;;;;;;;1.38;0.80;;;;;;;;;;5058855;28;20056;-69
2022/10/03 11:15:12;;;;;;;2.20;1.08;;;;;;;;;;5058459;28;20072;-69
2022/10/03 11:17:50;;;;;;;2.00;0.90;;;;;;;;;;5055281;28;20052;-69
2022/10/03 11:20:37;;;;;;;0.68;0.65;;;;;;;;;;5048558;28;20896;-69
2022/10/03 11:23:20;;;;;;;1.98;0.85;;;;;;;;;;5039323;28;20049;-70
2022/10/03 11:26:09;;;;;;;1.77;0.90;;;;;;;;;;5055599;28;20058;-69
2022/10/03 11:29:01;;;;;;;1.58;1.27;;;;;;;;;;5054371;28;20048;-69
2022/10/03 11:31:48;;;;;;;1.30;0.77;;;;;;;;;;5050343;28;20052;-69
2022/10/03 11:34:29;;;;;;;1.23;0.70;;;;;;;;;;5057793;28;20048;-70
2022/10/03 11:37:12;;;;;;;5.03;1.30;;;;;;;;;;5052719;28;20052;-71
2022/10/03 11:39:43;;;;;;;1.95;0.98;;;;;;;;;;5053369;28;20044;-69
2022/10/03 11:42:24;;;;;;;1.20;0.80;;;;;;;;;;5056108;28;20139;-69
2022/10/03 11:44:56;;;;;;;3.08;1.15;;;;;;;;;;5058442;28;20055;-69
2022/10/03 11:47:51;;;;;;;1.63;0.80;;;;;;;;;;5054219;28;20504;-66
2022/10/03 11:50:35;;;;;;;1.67;0.98;;;;;;;;;;5046868;28;20820;-69
2022/10/03 11:53:17;;;;;;;2.13;1.25;;;;;;;;;;5053866;28;20060;-70
2022/10/03 11:55:50;;;;;;;1.02;0.63;;;;;;;;;;5044495;28;20033;-68
2022/10/03 11:58:26;;;;;;;2.90;1.02;;;;;;;;;;5049608;28;20052;-69
2022/10/03 12:01:00;;;;;;;9.02;1.08;;;;;;;;;;5051978;28;20575;-69
2022/10/03 12:03:32;;;;;;;4.95;1.30;;;;;;;;;;5053172;28;20056;-69
2022/10/03 12:08:57;;;;;;;3.25;1.65;;;;;;;;;;5049247;28;20564;-70
2022/10/03 12:11:27;;;;;;;0.90;0.70;;;;;;;;;;5050888;28;20045;-69
2022/10/03 12:14:13;;;;;;;1.73;0.90;;;;;;;;;;5053944;28;20048;-69
2022/10/03 12:16:50;;;;;;;1.95;0.70;;;;;;;;;;5068546;28;20136;-68
2022/10/03 12:19:29;;;;;;;1.30;0.93;;;;;;;;;;5049841;28;20092;-69
2022/10/03 12:22:01;;;;;;;2.05;1.13;;;;;;;;;;5048918;28;20052;-69
2022/10/03 12:24:31;;;;;;;0.82;0.70;;;;;;;;;;5052344;28;20049;-69
2022/10/03 12:27:05;;;;;;;1.27;0.80;;;;;;;;;;5054688;28;20049;-69
2022/10/03 12:29:36;;;;;;;2.75;1.27;;;;;;;;;;5056298;28;20191;-69
2022/10/03 12:32:13;;;;;;;3.58;1.08;;;;;;;;;;5051925;28;20044;-69
2022/10/03 12:34:45;;;;;;;1.90;0.77;;;;;;;;;;5053984;28;20052;-69
2022/10/03 12:37:34;;;;;;;2.05;0.70;;;;;;;;;;5052195;28;20102;-70
2022/10/03 12:40:05;;;;;;;0.80;0.80;;;;;;;;;;5039873;28;20049;-69
2022/10/03 12:42:36;;;;;;;1.50;0.70;;;;;;;;;;5050982;28;20041;-69
2022/10/03 12:45:07;;;;;;;0.88;0.63;;;;;;;;;;5047613;28;20122;-70
2022/10/03 12:47:43;;;;;;;0.90;0.50;;;;;;;;;;5046794;28;20444;-69
2022/10/03 12:50:30;;;;;;;2.28;1.00;;;;;;;;;;5049649;28;20048;-69
2022/10/03 12:53:05;;;;;;;0.65;0.65;;;;;;;;;;5047129;28;20052;-69
2022/10/03 12:55:35;;;;;;;4.00;0.63;;;;;;;;;;5043426;28;20049;-69
2022/10/03 12:58:06;;;;;;;1.50;0.70;;;;;;;;;;5057728;28;20052;-71
2022/10/03 13:00:37;;;;;;;0.82;0.60;;;;;;;;;;5049152;28;20081;-69
2022/10/03 13:03:20;;;;;;;1.08;0.77;;;;;;;;;;5056686;28;20203;-68
2022/10/03 13:06:10;;;;;;;2.72;0.52;;;;;;;;;;5053380;28;21171;-68
2022/10/03 13:08:44;;;;;;;4.95;1.10;;;;;;;;;;5047267;28;20374;-68
2022/10/03 13:11:24;;;;;;;1.55;0.85;;;;;;;;;;5048304;28;20413;-69
2022/10/03 13:13:59;;;;;;;2.65;1.27;;;;;;;;;;5046601;28;20048;-69
2022/10/03 13:16:30;;;;;;;2.63;0.80;;;;;;;;;;5053142;28;20262;-69
2022/10/03 13:19:00;;;;;;;2.53;0.50;;;;;;;;;;5051880;28;20095;-70
2022/10/03 13:21:43;;;;;;;1.23;0.75;;;;;;;;;;5052163;28;20484;-70
2022/10/03 13:24:21;;;;;;;1.50;0.65;;;;;;;;;;5046615;28;20118;-68
2022/10/03 13:26:54;;;;;;;4.63;0.70;;;;;;;;;;5046332;28;20060;-69
2022/10/03 13:29:25;;;;;;;0.75;0.55;;;;;;;;;;5048158;28;20120;-69
2022/10/03 13:32:07;;;;;;;4.05;0.90;;;;;;;;;;5050523;28;20051;-69
2022/10/03 13:34:39;;;;;;;1.15;0.82;;;;;;;;;;5056665;28;20048;-68
2022/10/03 13:37:13;;;;;;;7.32;0.75;;;;;;;;;;5051226;28;20051;-71
2022/10/03 13:39:46;;;;;;;1.02;0.57;;;;;;;;;;5050405;28;20045;-70
2022/10/03 13:42:18;;;;;;;0.65;0.60;;;;;;;;;;5048016;28;20698;-69
2022/10/03 13:44:53;;;;;;;1.13;0.70;;;;;;;;;;5049177;28;20052;-69
2022/10/03 13:47:28;;;;;;;4.95;1.02;;;;;;;;;;5053228;28;20501;-69
2022/10/03 13:50:00;;;;;;;3.75;0.63;;;;;;;;;;5050726;28;20052;-72
2022/10/03 13:52:36;;;;;;;5.35;0.65;;;;;;;;;;5054725;28;20055;-69
2022/10/03 13:55:16;;;;;;;0.73;0.63;;;;;;;;;;5058488;28;20072;-69
2022/10/03 13:57:46;;;;;;;2.17;0.77;;;;;;;;;;5056215;28;20119;-69
2022/10/03 14:00:16;;;;;;;2.97;0.40;;;;;;;;;;5057209;28;20526;-69
2022/10/03 14:03:03;;;;;;;1.45;0.60;;;;;;;;;;5049985;28;20059;-71
2022/10/03 14:05:42;;;;;;;0.43;0.43;;;;;;;;;;5052942;28;20107;-70
2022/10/03 14:08:18;;;;;;;0.77;0.40;;;;;;;;;;5052035;28;20041;-69
2022/10/03 14:10:55;;;;;;;1.25;0.63;;;;;;;;;;5054877;22;20049;-80
2022/10/03 14:13:30;;;;;;;3.38;0.60;;;;;;;;;;5035759;28;20405;-82
2022/10/03 14:16:05;;;;;;;0.80;0.75;;;;;;;;;;5037818;28;20138;-82
2022/10/03 14:18:42;;;;;;;2.60;0.50;;;;;;;;;;5036337;28;20053;-82
2022/10/03 14:21:28;;;;;;;0.80;0.73;;;;;;;;;;5035843;28;20365;-82
2022/10/03 14:23:56;;;;;;;;;;;;;;;;;;5038628;28;20045;-83
2022/10/03 14:26:30;;;;;;;0.50;0.40;;;;;;;;;;5039968;28;19924;-81
2022/10/03 14:29:02;;;;;;;0.93;0.50;;;;;;;;;;5038724;28;20515;-82
2022/10/03 14:31:33;;;;;;;1.17;1.00;;;;;;;;;;5041555;28;20132;-82
2022/10/03 14:34:07;;;;;;;0.82;0.50;;;;;;;;;;5045234;28;20056;-81
2022/10/03 14:36:38;;;;;;;0.50;0.45;;;;;;;;;;5055527;28;20080;-81
2022/10/03 14:39:21;;;;;;;1.02;0.70;;;;;;;;;;5043011;28;20059;-87
2022/10/03 14:42:06;;;;;;;0.52;0.52;;;;;;;;;;5035763;28;20080;-86
2022/10/03 14:44:38;;;;;;;1.10;0.98;;;;;;;;;;5038596;28;20055;-84
2022/10/03 14:47:09;;;;;;;1.92;0.65;;;;;;;;;;5043819;28;20059;-84
2022/10/03 14:49:39;;;;;;;0.73;0.50;;;;;;;;;;5042902;28;20041;-83
2022/10/03 14:52:27;;;;;;;3.50;0.57;;;;;;;;;;5048519;28;20044;-84
2022/10/03 14:54:58;;;;;;;3.72;0.50;;;;;;;;;;5046119;28;20049;-83
2022/10/03 14:57:33;;;;;;;0.60;0.30;;;;;;;;;;5045603;28;20052;-83
2022/10/03 15:00:27;;;;;;;0.40;0.40;;;;;;;;;;5050116;28;20049;-84
2022/10/03 15:02:56;;;;;;;1.42;0.43;;;;;;;;;;5044144;28;20059;-83
2022/10/03 15:05:35;;;;;;;0.85;0.40;;;;;;;;;;5049136;28;20053;-84
2022/10/03 15:08:11;;;;;;;2.00;0.50;;;;;;;;;;5040793;28;20053;-83
2022/10/03 15:10:40;;;;;;;2.45;0.50;;;;;;;;;;5047469;28;20049;-82
2022/10/03 15:13:11;;;;;;;0.90;0.68;;;;;;;;;;5051714;28;20408;-84
2022/10/03 15:15:40;;;;;;;1.27;0.38;;;;;;;;;;5043694;28;20051;-81
2022/10/03 15:18:15;;;;;;;4.07;0.43;;;;;;;;;;5048643;28;20045;-83
2022/10/03 15:20:45;;;;;;;1.67;0.52;;;;;;;;;;5045406;28;20064;-84
2022/10/03 15:23:20;;;;;;;0.68;0.68;;;;;;;;;;5045722;28;20081;-85
2022/10/03 15:25:51;;;;;;;0.95;0.50;;;;;;;;;;5047337;28;20057;-84
2022/10/03 15:28:23;;;;;;;0.45;0.40;;;;;;;;;;5045987;28;20076;-84
2022/10/03 15:30:53;;;;;;;0.60;0.30;;;;;;;;;;5044143;28;20355;-83
2022/10/03 15:33:28;;;;;;;0.40;0.38;;;;;;;;;;5043555;28;20048;-83
2022/10/03 15:35:58;;;;;;;0.57;0.57;;;;;;;;;;5044291;28;20155;-82
2022/10/03 15:38:28;;;;;;;1.45;0.50;;;;;;;;;;5042319;28;20037;-87
2022/10/03 15:41:09;;;;;;;0.50;0.40;;;;;;;;;;5040184;28;20433;-87
2022/10/03 15:43:45;;;;;;;0.57;0.20;;;;;;;;;;5041712;28;20037;-88
2022/10/03 15:46:23;;;;;;;1.75;1.48;;;;;;;;;;5040810;28;20115;-84
2022/10/03 15:48:54;;;;;;;0.75;0.30;;;;;;;;;;5046170;28;20060;-83
2022/10/03 15:51:26;;;;;;;3.13;0.38;;;;;;;;;;5045446;28;20087;-82
2022/10/03 15:53:58;;;;;;;0.85;0.82;;;;;;;;;;5041235;28;20053;-82
2022/10/03 15:56:30;;;;;;;0.60;0.40;;;;;;;;;;5042353;28;20075;-83
2022/10/03 15:59:02;;;;;;;0.98;0.43;;;;;;;;;;5040355;28;20095;-85
2022/10/03 16:01:34;;;;;;;0.20;0.20;;;;;;;;;;5042542;28;20052;-83
2022/10/03 16:04:03;;;;;;;0.55;0.47;;;;;;;;;;5042689;28;20095;-83
2022/10/03 16:06:39;;;;;;;3.42;0.30;;;;;;;;;;5046907;28;20048;-82
2022/10/03 16:09:14;;;;;;;0.50;0.28;;;;;;;;;;5043922;28;20063;-89